Webcam Flughafen St.Gallen-Altenrhein

Live-Bilder und Zeitraffer LSZR / ACH.

 

Live aus Altenrhein
LIVE
LSZR 140520Z VRB02KT 9999 SCT065 BKN090 18/17 Q1017 NOSIG RMK B
Zeitraffer heute
2020-08-14 00:14:02
LSZR 132150Z AUTO 22003KT 170V250 CAVOK 17/16 Q1016